Time;durP1;ratioP1;P1;durP2;ratioP2;P2;SDS_P1;SDS_P2;PMS_P1;PMS_P2;Temp;Humidity;BMP_temperature;BMP_pressure;BME280_temperature;BME280_humidity;BME280_pressure;Samples;Min_cycle;Max_cycle;Signal;HPM_P1;HPM_P2
2022/01/27 00:07:29;;;;;;;;;57.75;45.75;;;;;;;;5058161;28;45454;-77
2022/01/27 00:10:25;;;;;;;;;66.25;46.50;;;;;;;;5057869;28;45686;-77
2022/01/27 00:12:51;;;;;;;;;63.00;45.75;;;;;;;;5057801;28;45355;-77
2022/01/27 00:15:17;;;;;;;;;56.25;45.75;;;;;;;;5059203;28;45366;-77
2022/01/27 00:17:48;;;;;;;;;63.00;45.75;;;;;;;;5042696;28;46041;-77
2022/01/27 00:20:14;;;;;;;;;49.50;41.50;;;;;;;;5037109;28;47264;-77
2022/01/27 00:22:40;;;;;;;;;61.25;46.00;;;;;;;;5059330;28;44753;-77
2022/01/27 00:25:06;;;;;;;;;59.50;44.50;;;;;;;;5056604;28;45288;-77
2022/01/27 00:27:32;;;;;;;;;69.25;49.50;;;;;;;;5039411;28;45361;-77
2022/01/27 00:30:00;;;;;;;;;62.50;49.25;;;;;;;;5054259;28;47227;-77
2022/01/27 00:32:25;;;;;;;;;58.75;45.25;;;;;;;;5035992;28;45186;-77
2022/01/27 00:34:50;;;;;;;;;58.25;45.00;;;;;;;;5058751;28;45315;-77
2022/01/27 00:37:15;;;;;;;;;51.00;42.25;;;;;;;;5057722;28;45583;-76
2022/01/27 00:39:41;;;;;;;;;66.00;49.50;;;;;;;;5067500;28;45576;-77
2022/01/27 00:42:06;;;;;;;;;56.75;45.75;;;;;;;;5042128;28;45804;-77
2022/01/27 00:44:31;;;;;;;;;63.25;48.00;;;;;;;;5059725;28;45411;-76
2022/01/27 00:46:56;;;;;;;;;60.00;43.00;;;;;;;;5048967;28;45357;-77
2022/01/27 00:49:21;;;;;;;;;60.00;44.50;;;;;;;;5059942;28;45269;-77
2022/01/27 00:51:47;;;;;;;;;55.00;42.75;;;;;;;;5052075;28;45374;-77
2022/01/27 00:54:20;;;;;;;;;59.25;46.75;;;;;;;;5060554;28;45361;-77
2022/01/27 00:56:52;;;;;;;;;57.00;44.25;;;;;;;;5054086;28;45333;-77
2022/01/27 00:59:29;;;;;;;;;63.50;45.50;;;;;;;;5060173;28;45538;-77
2022/01/27 01:04:45;;;;;;;;;59.75;45.50;;;;;;;;5033393;28;45284;-77
2022/01/27 01:07:11;;;;;;;;;55.00;43.50;;;;;;;;5055212;28;45313;-77
2022/01/27 01:15:29;;;;;;;;;59.00;44.25;;;;;;;;5056182;28;45380;-77
2022/01/27 01:34:23;;;;;;;;;51.00;37.00;;;;;;;;5057887;28;45297;-77
2022/01/27 01:37:05;;;;;;;;;53.25;41.00;;;;;;;;5037935;28;45420;-77
2022/01/27 01:39:34;;;;;;;;;56.00;45.25;;;;;;;;5058819;28;46078;-77
2022/01/27 01:42:00;;;;;;;;;49.50;36.75;;;;;;;;5055026;28;45391;-77
2022/01/27 01:44:26;;;;;;;;;50.75;41.00;;;;;;;;5058710;28;45272;-77
2022/01/27 01:46:52;;;;;;;;;53.50;40.50;;;;;;;;5057122;28;45360;-77
2022/01/27 01:49:17;;;;;;;;;52.00;40.00;;;;;;;;5059589;28;45305;-77
2022/01/27 01:51:43;;;;;;;;;50.00;38.00;;;;;;;;5030245;28;47146;-77
2022/01/27 01:54:09;;;;;;;;;49.75;39.25;;;;;;;;5052579;28;45570;-77
2022/01/27 01:56:34;;;;;;;;;57.25;42.00;;;;;;;;5050005;28;45422;-77
2022/01/27 01:59:00;;;;;;;;;57.75;40.50;;;;;;;;5059367;28;45277;-77
2022/01/27 02:01:25;;;;;;;;;57.25;42.25;;;;;;;;5034077;28;47108;-77
2022/01/27 02:03:51;;;;;;;;;56.00;43.25;;;;;;;;5065123;28;45269;-77
2022/01/27 02:06:28;;;;;;;;;56.75;42.00;;;;;;;;5072765;28;44802;-77
2022/01/27 02:09:11;;;;;;;;;50.50;40.50;;;;;;;;5059223;28;45375;-77
2022/01/27 02:19:54;;;;;;;;;56.00;44.25;;;;;;;;5057047;28;45320;-77
2022/01/27 02:22:20;;;;;;;;;63.25;47.25;;;;;;;;5054414;28;45512;-77
2022/01/27 02:24:45;;;;;;;;;57.75;42.75;;;;;;;;5057082;28;45226;-77
2022/01/27 02:27:11;;;;;;;;;59.75;45.75;;;;;;;;5054491;28;45229;-77
2022/01/27 02:29:36;;;;;;;;;52.25;43.50;;;;;;;;5057177;28;45806;-77
2022/01/27 02:32:02;;;;;;;;;64.25;47.00;;;;;;;;5051439;28;47019;-77
2022/01/27 02:34:27;;;;;;;;;67.50;44.25;;;;;;;;5058116;28;45243;-77
2022/01/27 02:36:52;;;;;;;;;57.25;41.75;;;;;;;;5055806;28;45261;-77
2022/01/27 02:39:18;;;;;;;;;57.50;44.50;;;;;;;;5040826;28;45835;-77
2022/01/27 02:41:49;;;;;;;;;55.50;40.25;;;;;;;;5053463;28;45389;-77
2022/01/27 02:44:34;;;;;;;;;63.00;46.50;;;;;;;;5040615;28;45508;-77
2022/01/27 02:46:59;;;;;;;;;58.00;44.00;;;;;;;;5054270;28;45304;-78
2022/01/27 02:49:24;;;;;;;;;60.25;46.25;;;;;;;;5061675;28;45422;-77
2022/01/27 02:51:50;;;;;;;;;60.50;44.25;;;;;;;;5030749;28;47075;-78
2022/01/27 02:54:15;;;;;;;;;53.00;41.25;;;;;;;;5051542;28;45243;-77
2022/01/27 02:56:45;;;;;;;;;52.75;42.25;;;;;;;;5048983;28;45432;-77
2022/01/27 02:59:11;;;;;;;;;57.50;47.25;;;;;;;;5062181;28;45504;-77
2022/01/27 03:01:36;;;;;;;;;52.50;40.25;;;;;;;;5054623;28;45526;-77
2022/01/27 03:04:02;;;;;;;;;62.25;45.25;;;;;;;;5062215;28;45254;-77
2022/01/27 03:06:27;;;;;;;;;58.25;45.25;;;;;;;;5053647;28;45218;-77
2022/01/27 03:08:52;;;;;;;;;57.50;44.75;;;;;;;;5060774;28;45807;-77
2022/01/27 03:11:32;;;;;;;;;56.75;47.00;;;;;;;;5036814;28;47719;-77
2022/01/27 03:13:57;;;;;;;;;67.75;45.75;;;;;;;;5054214;28;45336;-77
2022/01/27 03:16:22;;;;;;;;;56.75;40.50;;;;;;;;5055280;28;46442;-77
2022/01/27 03:18:47;;;;;;;;;58.50;41.75;;;;;;;;5061643;28;45579;-77
2022/01/27 03:21:15;;;;;;;;;63.50;44.50;;;;;;;;5054861;28;45409;-77
2022/01/27 03:23:40;;;;;;;;;53.75;45.00;;;;;;;;5061498;28;45479;-77
2022/01/27 03:26:05;;;;;;;;;52.50;42.50;;;;;;;;5055228;28;45236;-77
2022/01/27 03:28:31;;;;;;;;;60.25;45.25;;;;;;;;5061468;28;45248;-77
2022/01/27 03:30:56;;;;;;;;;62.25;49.00;;;;;;;;5068815;28;47259;-77
2022/01/27 03:33:21;;;;;;;;;53.00;39.75;;;;;;;;5049808;28;45330;-77
2022/01/27 03:35:46;;;;;;;;;65.25;46.75;;;;;;;;5057121;28;45234;-77
2022/01/27 03:38:12;;;;;;;;;55.75;43.50;;;;;;;;5061091;28;45483;-77
2022/01/27 03:40:37;;;;;;;;;65.50;45.00;;;;;;;;5055959;28;48218;-77
2022/01/27 03:43:05;;;;;;;;;64.00;44.25;;;;;;;;5059277;28;45221;-77
2022/01/27 03:45:30;;;;;;;;;53.75;43.25;;;;;;;;5057356;28;44837;-77
2022/01/27 03:47:56;;;;;;;;;59.50;44.25;;;;;;;;5060640;28;45296;-76
2022/01/27 03:50:21;;;;;;;;;58.75;43.50;;;;;;;;5058947;28;45584;-76
2022/01/27 03:52:46;;;;;;;;;63.50;46.75;;;;;;;;5052151;28;45275;-76
2022/01/27 03:55:12;;;;;;;;;59.75;46.75;;;;;;;;5042222;28;45529;-76
2022/01/27 03:57:37;;;;;;;;;58.25;45.25;;;;;;;;5042884;28;47108;-76
2022/01/27 04:00:04;;;;;;;;;58.00;47.25;;;;;;;;5040315;28;47308;-76
2022/01/27 04:02:29;;;;;;;;;52.25;40.25;;;;;;;;5057810;28;45327;-76
2022/01/27 04:04:54;;;;;;;;;66.00;48.50;;;;;;;;5043329;28;45319;-76
2022/01/27 04:07:20;;;;;;;;;63.00;48.00;;;;;;;;5056228;28;45326;-76
2022/01/27 04:09:45;;;;;;;;;61.75;46.00;;;;;;;;5044037;28;47350;-76
2022/01/27 04:12:11;;;;;;;;;64.25;48.25;;;;;;;;5042585;28;45363;-76
2022/01/27 04:14:36;;;;;;;;;63.50;44.75;;;;;;;;5040964;28;45328;-76
2022/01/27 04:17:02;;;;;;;;;60.50;47.75;;;;;;;;5055952;28;45312;-76
2022/01/27 04:19:27;;;;;;;;;63.75;51.75;;;;;;;;5059835;28;45456;-76
2022/01/27 04:21:53;;;;;;;;;62.50;47.50;;;;;;;;5054674;28;45346;-76
2022/01/27 04:24:18;;;;;;;;;57.75;46.25;;;;;;;;5060946;28;45230;-76
2022/01/27 04:26:48;;;;;;;;;65.00;48.25;;;;;;;;5052295;28;48218;-76
2022/01/27 04:29:15;;;;;;;;;56.00;45.50;;;;;;;;5058133;28;46505;-76
2022/01/27 04:31:42;;;;;;;;;51.75;42.50;;;;;;;;5053485;28;45371;-76
2022/01/27 04:34:08;;;;;;;;;56.25;45.50;;;;;;;;5058566;28;45249;-76
2022/01/27 04:36:35;;;;;;;;;51.50;40.50;;;;;;;;5054757;28;45337;-76
2022/01/27 04:42:09;;;;;;;;;52.75;41.50;;;;;;;;5043877;28;45242;-76
2022/01/27 04:44:41;;;;;;;;;63.00;47.50;;;;;;;;5059327;28;45343;-76
2022/01/27 04:47:45;;;;;;;;;59.00;47.50;;;;;;;;5058468;28;45660;-77
2022/01/27 04:49:58;;;;;;;;;62.75;45.25;;;;;;;;5055851;28;46217;-77
2022/01/27 04:52:25;;;;;;;;;57.50;45.50;;;;;;;;5052531;28;45587;-75
2022/01/27 04:55:03;;;;;;;;;68.00;44.50;;;;;;;;5054255;28;44687;-76
2022/01/27 04:57:29;;;;;;;;;59.00;44.00;;;;;;;;5067891;28;45358;-75
2022/01/27 04:59:55;;;;;;;;;55.00;42.75;;;;;;;;5054111;28;47104;-76
2022/01/27 05:02:57;;;;;;;;;56.75;41.75;;;;;;;;5054550;28;45308;-76
2022/01/27 05:05:11;;;;;;;;;49.25;40.75;;;;;;;;5038452;28;45293;-76
2022/01/27 05:07:37;;;;;;;;;49.75;39.25;;;;;;;;5055447;28;45344;-76
2022/01/27 05:10:10;;;;;;;;;62.50;45.25;;;;;;;;5038661;28;48242;-76
2022/01/27 05:12:48;;;;;;;;;56.75;45.25;;;;;;;;5055384;28;45174;-76
2022/01/27 05:15:14;;;;;;;;;59.25;44.00;;;;;;;;5055500;28;45314;-76
2022/01/27 05:17:39;;;;;;;;;47.50;29.50;;;;;;;;5037643;28;46332;-77
2022/01/27 05:20:05;;;;;;;;;57.50;42.00;;;;;;;;5056611;28;45462;-75
2022/01/27 05:22:31;;;;;;;;;55.75;45.00;;;;;;;;5056441;28;45396;-75
2022/01/27 05:24:56;;;;;;;;;59.75;46.00;;;;;;;;5058081;28;45314;-76
2022/01/27 05:27:22;;;;;;;;;57.50;45.00;;;;;;;;5059521;28;45287;-77
2022/01/27 05:29:47;;;;;;;;;48.25;38.25;;;;;;;;5057544;28;45447;-76
2022/01/27 05:32:12;;;;;;;;;60.00;42.25;;;;;;;;5039904;28;45269;-76
2022/01/27 05:34:37;;;;;;;;;58.00;41.00;;;;;;;;5059128;28;45269;-76
2022/01/27 05:37:03;;;;;;;;;71.75;53.50;;;;;;;;5056649;28;45252;-75
2022/01/27 05:39:28;;;;;;;;;62.50;48.75;;;;;;;;5058829;28;45579;-76
2022/01/27 05:41:53;;;;;;;;;53.00;40.25;;;;;;;;5039539;28;45665;-76
2022/01/27 05:44:18;;;;;;;;;41.25;32.00;;;;;;;;5041594;28;45299;-76
2022/01/27 05:46:44;;;;;;;;;55.75;40.75;;;;;;;;5056366;28;45333;-76
2022/01/27 05:49:09;;;;;;;;;60.00;41.00;;;;;;;;5059551;28;45310;-76
2022/01/27 05:51:34;;;;;;;;;43.00;38.50;;;;;;;;5030432;28;45257;-76
2022/01/27 05:53:59;;;;;;;;;53.00;43.75;;;;;;;;5059695;28;45210;-76
2022/01/27 05:56:25;;;;;;;;;61.00;44.50;;;;;;;;5055172;28;45743;-76
2022/01/27 05:58:50;;;;;;;;;58.75;42.75;;;;;;;;5060787;28;45390;-76
2022/01/27 06:01:15;;;;;;;;;56.75;44.00;;;;;;;;5052628;28;45219;-76
2022/01/27 06:03:40;;;;;;;;;58.75;42.50;;;;;;;;5057446;28;45498;-77
2022/01/27 06:06:06;;;;;;;;;45.50;39.50;;;;;;;;5049356;28;45477;-77
2022/01/27 06:08:31;;;;;;;;;54.00;40.00;;;;;;;;5057738;28;45577;-77
2022/01/27 06:10:57;;;;;;;;;54.25;41.25;;;;;;;;5055196;28;45408;-76
2022/01/27 06:13:22;;;;;;;;;51.75;41.00;;;;;;;;5039843;28;45380;-75
2022/01/27 06:15:47;;;;;;;;;57.25;41.25;;;;;;;;5041810;28;45903;-76
2022/01/27 06:18:13;;;;;;;;;55.00;40.50;;;;;;;;5058179;28;45651;-77
2022/01/27 06:20:39;;;;;;;;;58.25;40.50;;;;;;;;5051638;28;45511;-77
2022/01/27 06:23:05;;;;;;;;;43.25;36.50;;;;;;;;5058433;28;45350;-76
2022/01/27 06:25:30;;;;;;;;;49.25;39.25;;;;;;;;5069950;28;44834;-77
2022/01/27 06:27:56;;;;;;;;;51.75;41.25;;;;;;;;5043454;28;47919;-76
2022/01/27 06:30:21;;;;;;;;;43.00;37.50;;;;;;;;5053847;28;45321;-77
2022/01/27 06:32:46;;;;;;;;;52.75;40.00;;;;;;;;5059251;28;44750;-76
2022/01/27 06:35:11;;;;;;;;;50.75;41.00;;;;;;;;5038554;28;45943;-75
2022/01/27 06:37:37;;;;;;;;;55.50;40.25;;;;;;;;5046225;28;48513;-76
2022/01/27 06:40:03;;;;;;;;;58.75;41.50;;;;;;;;5059430;28;45394;-75
2022/01/27 06:42:29;;;;;;;;;52.25;44.75;;;;;;;;5048917;28;45245;-75
2022/01/27 06:44:54;;;;;;;;;54.25;43.25;;;;;;;;5059990;28;45317;-75
2022/01/27 06:47:19;;;;;;;;;54.75;40.25;;;;;;;;5048576;28;45284;-76
2022/01/27 06:49:44;;;;;;;;;56.00;40.25;;;;;;;;5060043;28;45229;-76
2022/01/27 06:52:10;;;;;;;;;48.50;38.00;;;;;;;;5054095;28;45221;-75
2022/01/27 06:54:35;;;;;;;;;57.50;40.75;;;;;;;;5059619;28;45275;-75
2022/01/27 06:57:01;;;;;;;;;52.25;41.00;;;;;;;;5035498;28;48485;-75
2022/01/27 06:59:27;;;;;;;;;69.25;52.00;;;;;;;;5036421;28;45755;-75
2022/01/27 07:01:52;;;;;;;;;89.33;66.67;;;;;;;;5053818;28;45281;-75
2022/01/27 07:04:17;;;;;;;;;83.25;60.75;;;;;;;;5061987;28;45383;-76
2022/01/27 07:06:42;;;;;;;;;72.75;51.75;;;;;;;;5054573;28;46372;-75
2022/01/27 07:09:08;;;;;;;;;69.00;50.75;;;;;;;;5061826;28;45296;-75
2022/01/27 07:11:33;;;;;;;;;64.50;52.25;;;;;;;;5053646;28;45424;-76
2022/01/27 07:13:58;;;;;;;;;60.50;47.25;;;;;;;;5061724;28;45619;-75
2022/01/27 07:16:23;;;;;;;;;55.00;41.50;;;;;;;;5036989;28;47129;-77
2022/01/27 07:18:51;;;;;;;;;52.50;42.00;;;;;;;;5061785;28;45403;-76
2022/01/27 07:21:16;;;;;;;;;55.25;45.00;;;;;;;;5054709;28;45811;-76
2022/01/27 07:23:41;;;;;;;;;57.75;45.50;;;;;;;;5061568;28;45344;-76
2022/01/27 07:26:07;;;;;;;;;56.25;40.25;;;;;;;;5054615;28;45414;-76
2022/01/27 07:28:33;;;;;;;;;52.00;39.50;;;;;;;;5061534;28;44670;-76
2022/01/27 07:30:58;;;;;;;;;55.50;43.25;;;;;;;;5055783;28;45367;-76
2022/01/27 07:33:23;;;;;;;;;44.00;39.25;;;;;;;;5048096;28;45967;-76
2022/01/27 07:35:49;;;;;;;;;47.25;41.75;;;;;;;;5055872;28;46425;-75
2022/01/27 07:38:14;;;;;;;;;42.75;39.50;;;;;;;;5060954;28;45261;-75
2022/01/27 07:40:39;;;;;;;;;46.00;34.00;;;;;;;;5059126;28;45315;-75
2022/01/27 07:43:04;;;;;;;;;57.00;41.25;;;;;;;;5059339;28;45186;-76
2022/01/27 07:45:30;;;;;;;;;56.75;41.25;;;;;;;;5058941;28;45225;-76
2022/01/27 07:47:57;;;;;;;;;49.00;41.75;;;;;;;;5059934;28;45471;-76
2022/01/27 07:50:26;;;;;;;;;55.00;42.25;;;;;;;;5059395;28;46144;-76
2022/01/27 07:52:51;;;;;;;;;54.00;41.00;;;;;;;;5053146;28;45450;-75
2022/01/27 07:55:16;;;;;;;;;49.50;41.00;;;;;;;;5066057;28;45245;-74
2022/01/27 07:57:41;;;;;;;;;45.00;36.75;;;;;;;;5056979;28;45416;-75
2022/01/27 08:00:07;;;;;;;;;54.50;42.00;;;;;;;;5041100;28;45269;-75
2022/01/27 08:02:32;;;;;;;;;50.50;41.25;;;;;;;;5057378;28;45375;-74
2022/01/27 08:04:58;;;;;;;;;45.75;38.00;;;;;;;;5039645;28;47155;-75
2022/01/27 08:07:23;;;;;;;;;41.50;34.50;;;;;;;;5056083;28;45419;-75
2022/01/27 08:09:48;;;;;;;;;54.25;40.75;;;;;;;;5057928;28;45643;-75
2022/01/27 08:12:13;;;;;;;;;45.00;33.75;;;;;;;;5055602;28;45248;-75
2022/01/27 08:14:39;;;;;;;;;46.00;40.25;;;;;;;;5058801;28;46552;-75
2022/01/27 08:17:04;;;;;;;;;54.00;42.75;;;;;;;;5055425;28;45232;-74
2022/01/27 08:19:29;;;;;;;;;50.00;40.25;;;;;;;;5060024;28;45173;-75
2022/01/27 08:21:54;;;;;;;;;54.50;40.75;;;;;;;;5038730;28;46410;-75
2022/01/27 08:24:19;;;;;;;;;45.00;40.00;;;;;;;;5056762;28;45543;-75
2022/01/27 08:26:47;;;;;;;;;43.75;36.00;;;;;;;;5034849;28;45395;-75
2022/01/27 08:31:56;;;;;;;;;53.25;41.25;;;;;;;;5054751;28;45263;-75
2022/01/27 08:34:41;;;;;;;;;49.25;39.25;;;;;;;;5047175;28;45466;-75
2022/01/27 08:37:08;;;;;;;;;40.75;36.25;;;;;;;;5058223;28;45253;-75
2022/01/27 08:39:34;;;;;;;;;56.00;44.00;;;;;;;;5041728;28;45361;-75
2022/01/27 08:42:00;;;;;;;;;53.50;38.00;;;;;;;;5049647;28;45517;-75
2022/01/27 08:44:25;;;;;;;;;52.75;42.75;;;;;;;;5042101;28;47152;-75
2022/01/27 08:46:50;;;;;;;;;50.75;39.00;;;;;;;;5049918;28;45388;-75
2022/01/27 08:49:18;;;;;;;;;49.75;39.00;;;;;;;;5060346;28;45344;-75
2022/01/27 08:51:45;;;;;;;;;51.75;40.50;;;;;;;;5052159;28;46334;-75
2022/01/27 08:54:10;;;;;;;;;55.75;44.25;;;;;;;;5041827;28;47826;-75
2022/01/27 08:56:35;;;;;;;;;50.00;40.25;;;;;;;;5056715;28;45240;-74
2022/01/27 08:59:01;;;;;;;;;47.75;40.25;;;;;;;;5060155;28;45236;-75
2022/01/27 09:01:27;;;;;;;;;41.75;34.25;;;;;;;;5053236;28;45284;-75
2022/01/27 09:03:53;;;;;;;;;59.75;42.50;;;;;;;;5059833;28;45321;-75
2022/01/27 09:06:21;;;;;;;;;51.25;41.00;;;;;;;;5053073;28;45650;-75
2022/01/27 09:08:47;;;;;;;;;61.00;42.00;;;;;;;;5060014;28;45269;-75
2022/01/27 09:11:12;;;;;;;;;62.25;45.00;;;;;;;;5034840;28;46232;-75
2022/01/27 09:13:38;;;;;;;;;52.00;41.25;;;;;;;;5041538;28;47297;-75
2022/01/27 09:16:04;;;;;;;;;49.25;40.50;;;;;;;;5053119;28;45230;-75
2022/01/27 09:18:29;;;;;;;;;53.25;40.25;;;;;;;;5059818;28;45240;-75
2022/01/27 09:20:56;;;;;;;;;52.00;40.50;;;;;;;;5051660;28;46072;-75
2022/01/27 09:23:22;;;;;;;;;50.25;40.00;;;;;;;;5041192;28;47276;-75
2022/01/27 09:25:49;;;;;;;;;47.75;40.50;;;;;;;;5055092;28;45237;-74
2022/01/27 09:28:15;;;;;;;;;60.75;45.00;;;;;;;;5046397;28;45328;-75
2022/01/27 09:30:41;;;;;;;;;45.00;38.50;;;;;;;;5054892;28;45403;-75
2022/01/27 09:33:07;;;;;;;;;47.50;40.00;;;;;;;;5056941;28;45337;-75
2022/01/27 09:35:32;;;;;;;;;47.00;38.00;;;;;;;;5055922;28;45327;-75
2022/01/27 09:37:58;;;;;;;;;49.50;38.75;;;;;;;;5059250;28;45308;-75
2022/01/27 09:40:24;;;;;;;;;51.00;40.25;;;;;;;;5054903;28;45411;-75
2022/01/27 09:42:52;;;;;;;;;56.75;41.00;;;;;;;;5040570;28;46785;-75
2022/01/27 09:45:18;;;;;;;;;54.50;43.25;;;;;;;;5057053;28;45500;-75
2022/01/27 09:47:52;;;;;;;;;59.00;41.25;;;;;;;;5051515;28;45301;-75
2022/01/27 09:52:55;;;;;;;;;47.75;33.75;;;;;;;;5058561;28;45249;-75
2022/01/27 09:55:21;;;;;;;;;50.00;38.75;;;;;;;;5039825;28;45439;-75
2022/01/27 09:57:46;;;;;;;;;45.25;32.00;;;;;;;;5056956;28;45318;-75
2022/01/27 10:00:12;;;;;;;;;50.50;38.25;;;;;;;;5038488;28;46101;-75
2022/01/27 10:02:39;;;;;;;;;48.75;39.75;;;;;;;;5054495;28;45416;-75
2022/01/27 10:05:04;;;;;;;;;46.25;39.00;;;;;;;;5039049;28;45327;-75
2022/01/27 10:07:38;;;;;;;;;41.00;34.75;;;;;;;;5048782;28;45325;-75
2022/01/27 10:10:05;;;;;;;;;50.75;40.00;;;;;;;;5055243;28;45253;-75
2022/01/27 10:12:34;;;;;;;;;64.25;49.50;;;;;;;;5056701;28;46481;-75
2022/01/27 10:15:01;;;;;;;;;63.50;51.50;;;;;;;;5056663;28;45601;-75
2022/01/27 10:17:28;;;;;;;;;63.00;46.50;;;;;;;;5054421;28;45333;-75
2022/01/27 10:19:53;;;;;;;;;60.75;44.50;;;;;;;;5056880;28;45496;-75
2022/01/27 10:22:19;;;;;;;;;62.25;49.50;;;;;;;;5043822;28;47345;-75
2022/01/27 10:24:44;;;;;;;;;57.00;41.00;;;;;;;;5038887;28;45380;-75
2022/01/27 10:27:17;;;;;;;;;64.75;47.00;;;;;;;;5052706;28;45374;-75
2022/01/27 10:32:47;;;;;;;;;56.50;45.25;;;;;;;;5018540;28;46187;-75
2022/01/27 10:35:13;;;;;;;;;62.50;45.50;;;;;;;;5047774;28;45322;-75
2022/01/27 10:37:54;;;;;;;;;53.75;42.75;;;;;;;;5057318;28;45351;-75
2022/01/27 10:40:20;;;;;;;;;44.50;35.50;;;;;;;;5056353;28;45416;-75
2022/01/27 10:42:45;;;;;;;;;45.75;35.50;;;;;;;;5039960;28;47204;-75
2022/01/27 10:45:14;;;;;;;;;57.75;47.25;;;;;;;;5037200;28;45347;-75
2022/01/27 10:47:44;;;;;;;;;47.25;36.00;;;;;;;;5050734;28;45224;-75
2022/01/27 10:50:11;;;;;;;;;50.75;37.25;;;;;;;;5056284;28;45367;-75
2022/01/27 10:52:41;;;;;;;;;55.00;42.75;;;;;;;;5040142;28;46850;-75
2022/01/27 10:55:08;;;;;;;;;46.25;37.25;;;;;;;;5055142;28;45198;-75
2022/01/27 10:57:33;;;;;;;;;52.75;40.50;;;;;;;;5054699;28;45403;-74
2022/01/27 11:00:04;;;;;;;;;51.75;41.50;;;;;;;;5060809;28;45243;-74
2022/01/27 11:02:30;;;;;;;;;48.50;36.25;;;;;;;;5049107;28;47558;-75
2022/01/27 11:04:55;;;;;;;;;41.50;36.00;;;;;;;;5049055;28;45374;-75
2022/01/27 11:07:24;;;;;;;;;49.25;38.00;;;;;;;;5053018;28;45512;-75
2022/01/27 11:09:49;;;;;;;;;50.25;41.75;;;;;;;;5040268;28;48074;-75
2022/01/27 11:12:18;;;;;;;;;38.50;33.50;;;;;;;;5048369;28;47918;-75
2022/01/27 11:14:48;;;;;;;;;37.25;33.50;;;;;;;;5059747;28;45229;-75
2022/01/27 11:17:18;;;;;;;;;47.50;38.25;;;;;;;;5037050;28;45462;-75
2022/01/27 11:25:09;;;;;;;;;45.00;38.25;;;;;;;;5059596;28;45317;-77
2022/01/27 11:27:36;;;;;;;;;53.75;41.00;;;;;;;;5049949;28;45469;-75
2022/01/27 11:30:07;;;;;;;;;53.50;41.25;;;;;;;;5058089;28;46252;-76
2022/01/27 11:32:39;;;;;;;;;52.25;38.75;;;;;;;;5055732;28;47276;-75
2022/01/27 11:35:15;;;;;;;;;45.75;36.50;;;;;;;;5059064;28;45182;-75
2022/01/27 11:37:40;;;;;;;;;51.00;36.00;;;;;;;;5055770;28;45353;-76
2022/01/27 11:40:07;;;;;;;;;45.00;38.50;;;;;;;;5057731;28;45408;-78
2022/01/27 11:42:35;;;;;;;;;50.75;40.25;;;;;;;;5042780;28;47233;-75
2022/01/27 11:45:19;;;;;;;;;51.50;41.00;;;;;;;;5058885;28;45323;-75
2022/01/27 11:48:12;;;;;;;;;48.50;38.50;;;;;;;;5047530;28;45316;-75
2022/01/27 11:50:53;;;;;;;;;52.25;40.75;;;;;;;;5039681;28;45238;-76
2022/01/27 11:53:31;;;;;;;;;49.75;41.00;;;;;;;;5057204;28;46525;-76
2022/01/27 11:56:01;;;;;;;;;33.75;32.25;;;;;;;;5036498;28;45871;-75
2022/01/27 11:58:27;;;;;;;;;51.25;38.75;;;;;;;;5059291;28;45267;-76
2022/01/27 12:01:03;;;;;;;;;51.75;37.75;;;;;;;;5053148;28;46142;-76
2022/01/27 12:03:29;;;;;;;;;46.75;34.00;;;;;;;;5042662;28;47449;-76
2022/01/27 12:06:14;;;;;;;;;43.00;37.25;;;;;;;;5052483;28;45412;-76
2022/01/27 12:08:39;;;;;;;;;48.75;38.50;;;;;;;;5032262;28;45343;-76
2022/01/27 12:11:08;;;;;;;;;44.25;37.75;;;;;;;;5034700;28;46013;-76
2022/01/27 12:13:50;;;;;;;;;46.50;38.25;;;;;;;;5042405;28;48490;-76
2022/01/27 12:19:04;;;;;;;;;53.75;41.50;;;;;;;;5060938;28;45346;-76
2022/01/27 12:21:46;;;;;;;;;51.50;39.00;;;;;;;;5035064;28;46671;-76
2022/01/27 12:24:16;;;;;;;;;43.25;37.00;;;;;;;;5057028;28;46125;-76
2022/01/27 12:26:48;;;;;;;;;45.50;37.00;;;;;;;;5054176;28;45313;-76
2022/01/27 12:29:25;;;;;;;;;53.00;38.00;;;;;;;;5059200;28;45204;-77
2022/01/27 12:31:50;;;;;;;;;45.50;40.00;;;;;;;;5058276;28;45473;-75
2022/01/27 12:34:16;;;;;;;;;50.00;38.75;;;;;;;;5044956;28;46032;-76
2022/01/27 12:36:56;;;;;;;;;43.00;36.75;;;;;;;;5039533;28;45529;-76
2022/01/27 12:39:23;;;;;;;;;43.50;34.00;;;;;;;;5058124;28;45358;-76
2022/01/27 12:41:53;;;;;;;;;37.00;33.25;;;;;;;;5057081;28;45482;-76
2022/01/27 12:44:19;;;;;;;;;49.00;40.25;;;;;;;;5055834;28;47174;-76
2022/01/27 12:47:00;;;;;;;;;42.00;35.25;;;;;;;;5039148;28;45689;-77
2022/01/27 12:49:38;;;;;;;;;39.00;31.50;;;;;;;;5059679;28;45445;-77
2022/01/27 12:52:08;;;;;;;;;39.25;35.00;;;;;;;;5039850;28;46126;-76
2022/01/27 12:54:34;;;;;;;;;42.50;35.25;;;;;;;;5058667;28;46454;-77
2022/01/27 12:56:59;;;;;;;;;48.00;36.25;;;;;;;;5058351;28;45314;-76
2022/01/27 12:59:29;;;;;;;;;38.25;32.25;;;;;;;;5055679;28;45251;-76
2022/01/27 13:01:55;;;;;;;;;43.50;35.50;;;;;;;;5056924;28;45553;-77
2022/01/27 13:04:24;;;;;;;;;44.75;38.50;;;;;;;;5059376;28;45708;-76
2022/01/27 13:06:54;;;;;;;;;46.00;35.00;;;;;;;;5037365;28;46186;-76
2022/01/27 13:09:19;;;;;;;;;38.25;34.00;;;;;;;;5041020;28;45354;-76
2022/01/27 13:11:46;;;;;;;;;46.75;38.75;;;;;;;;5035966;28;45879;-75
2022/01/27 13:14:11;;;;;;;;;43.50;32.50;;;;;;;;5058869;28;45672;-76
2022/01/27 13:16:41;;;;;;;;;48.75;36.25;;;;;;;;5057170;28;45407;-76
2022/01/27 13:19:18;;;;;;;;;53.75;40.25;;;;;;;;5038489;28;45472;-77
2022/01/27 13:21:46;;;;;;;;;63.75;46.25;;;;;;;;5054773;28;46106;-77
2022/01/27 13:24:17;;;;;;;;;37.75;35.50;;;;;;;;5058906;28;45553;-76
2022/01/27 13:26:46;;;;;;;;;40.75;36.75;;;;;;;;5038501;28;45838;-76
2022/01/27 13:29:17;;;;;;;;;44.50;37.75;;;;;;;;5041098;28;45301;-77
2022/01/27 13:31:42;;;;;;;;;56.00;41.00;;;;;;;;5056131;28;45348;-76
2022/01/27 13:34:07;;;;;;;;;60.00;42.50;;;;;;;;5040084;28;47124;-77
2022/01/27 13:36:37;;;;;;;;;45.00;36.50;;;;;;;;5053839;28;46067;-76
2022/01/27 13:41:36;;;;;;;;;39.25;35.75;;;;;;;;5056385;28;45479;-75
2022/01/27 13:44:12;;;;;;;;;50.75;33.00;;;;;;;;5041397;28;47202;-76
2022/01/27 13:46:40;;;;;;;;;46.25;34.75;;;;;;;;5048130;28;45328;-76
2022/01/27 13:49:07;;;;;;;;;47.75;35.75;;;;;;;;5046390;28;45322;-76
2022/01/27 13:51:32;;;;;;;;;38.50;35.50;;;;;;;;5030287;28;46967;-76
2022/01/27 13:53:58;;;;;;;;;32.00;29.75;;;;;;;;5040942;28;46920;-76
2022/01/27 13:56:24;;;;;;;;;43.25;37.25;;;;;;;;5050248;28;45245;-76
2022/01/27 13:59:10;;;;;;;;;35.00;31.25;;;;;;;;5059013;28;45298;-75
2022/01/27 14:01:36;;;;;;;;;35.50;32.25;;;;;;;;5052440;28;45162;-75
2022/01/27 14:04:01;;;;;;;;;45.75;34.00;;;;;;;;5061861;28;45537;-75
2022/01/27 14:06:26;;;;;;;;;34.00;27.50;;;;;;;;5056599;28;45197;-75
2022/01/27 14:08:56;;;;;;;;;35.50;30.75;;;;;;;;5059150;28;45320;-75
2022/01/27 14:11:35;;;;;;;;;29.00;29.00;;;;;;;;5050444;28;46260;-75
2022/01/27 14:14:01;;;;;;;;;43.50;34.25;;;;;;;;5058433;28;45322;-75
2022/01/27 14:16:27;;;;;;;;;36.75;31.50;;;;;;;;5047439;28;45519;-77
2022/01/27 14:18:53;;;;;;;;;33.25;24.75;;;;;;;;5059892;28;45303;-74
2022/01/27 14:21:23;;;;;;;;;37.00;29.75;;;;;;;;5036091;28;47251;-76
2022/01/27 14:26:27;;;;;;;;;41.00;33.00;;;;;;;;5052302;28;45478;-76
2022/01/27 14:28:53;;;;;;;;;31.50;24.75;;;;;;;;5055256;28;45277;-76
2022/01/27 14:31:19;;;;;;;;;38.25;31.25;;;;;;;;5035384;28;46268;-76
2022/01/27 14:33:44;;;;;;;;;35.75;32.00;;;;;;;;5039669;28;46032;-77
2022/01/27 14:36:10;;;;;;;;;39.25;32.75;;;;;;;;5048790;28;45419;-76
2022/01/27 14:38:36;;;;;;;;;31.50;29.00;;;;;;;;5059022;28;45332;-76
2022/01/27 14:41:01;;;;;;;;;40.50;33.00;;;;;;;;5055321;28;45452;-76
2022/01/27 14:43:29;;;;;;;;;36.75;32.00;;;;;;;;5049218;28;46231;-77
2022/01/27 14:45:54;;;;;;;;;39.00;36.25;;;;;;;;5063531;28;45390;-75
2022/01/27 14:48:20;;;;;;;;;36.75;27.00;;;;;;;;5057332;28;45269;-76
2022/01/27 14:50:45;;;;;;;;;35.25;32.00;;;;;;;;5045611;28;46025;-75
2022/01/27 14:53:10;;;;;;;;;34.75;29.00;;;;;;;;5059494;28;47235;-76
2022/01/27 14:55:35;;;;;;;;;33.75;32.25;;;;;;;;5048722;28;45372;-76
2022/01/27 14:58:01;;;;;;;;;35.75;30.25;;;;;;;;5038358;28;44697;-76
2022/01/27 15:00:27;;;;;;;;;48.75;34.00;;;;;;;;5056796;28;45321;-77
2022/01/27 15:02:52;;;;;;;;;38.75;34.25;;;;;;;;5060386;28;46457;-76
2022/01/27 15:05:18;;;;;;;;;41.50;34.50;;;;;;;;5058207;28;45372;-74
2022/01/27 15:07:45;;;;;;;;;36.00;32.00;;;;;;;;5059150;28;45260;-76
2022/01/27 15:10:11;;;;;;;;;31.25;29.00;;;;;;;;5059026;28;45374;-76
2022/01/27 15:12:37;;;;;;;;;38.75;33.75;;;;;;;;5057801;28;46498;-76
2022/01/27 15:20:32;;;;;;;;;44.75;32.25;;;;;;;;5055631;28;45470;-76
2022/01/27 15:22:58;;;;;;;;;36.50;31.50;;;;;;;;5038180;28;47361;-76
2022/01/27 15:25:24;;;;;;;;;30.75;29.50;;;;;;;;5056907;28;45418;-76
2022/01/27 15:27:49;;;;;;;;;42.50;34.75;;;;;;;;5041857;28;45359;-76